<?xml version="1.0" encoding="UTF-8" standalone="no" ?>
<gpx xmlns="http://www.topografix.com/GPX/1/1" xmlns:xsi="http://www.w3.org/2001/XMLSchema-instance" xsi:schemaLocation="http://www.topografix.com/GPX/1/1 http://www.topografix.com/GPX/1/1/gpx.xsd" version="1.1" creator="VisuGPX - https://www.visugpx.com">
  <metadata>
    <name>Puy Gris depuis Gleyzin</name>
    <desc><![CDATA[Aller-retour au sommet du Puy Gris depuis Gleyzin, la Bourgeat Noire.
Après le refuge de l'Oule nombreux pierriers et passages neigeux]]></desc>
  </metadata>
  <trk>
    <name><![CDATA[Tracé actuel: 10 SEPT 2016 07:37]]></name>
    <trkseg>
      <trkpt lat="45.3354" lon="6.11953">
        <ele>1097</ele>
        <time>2016-09-10T05:40:14Z</time>
      </trkpt>
      <trkpt lat="45.33521" lon="6.11976">
        <ele>1096.04</ele>
        <time>2016-09-10T05:40:56Z</time>
      </trkpt>
      <trkpt lat="45.33497" lon="6.12014">
        <ele>1097.96</ele>
        <time>2016-09-10T05:41:29Z</time>
      </trkpt>
      <trkpt lat="45.3347" lon="6.11997">
        <ele>1100.37</ele>
        <time>2016-09-10T05:42:05Z</time>
      </trkpt>
      <trkpt lat="45.33449" lon="6.11983">
        <ele>1100.37</ele>
        <time>2016-09-10T05:42:32Z</time>
      </trkpt>
      <trkpt lat="45.33415" lon="6.11997">
        <ele>1099.4</ele>
        <time>2016-09-10T05:42:59Z</time>
      </trkpt>
      <trkpt lat="45.3338" lon="6.12014">
        <ele>1099.4</ele>
        <time>2016-09-10T05:43:29Z</time>
      </trkpt>
      <trkpt lat="45.33357" lon="6.12028">
        <ele>1098.92</ele>
        <time>2016-09-10T05:43:49Z</time>
      </trkpt>
      <trkpt lat="45.33335" lon="6.12044">
        <ele>1098.44</ele>
        <time>2016-09-10T05:44:09Z</time>
      </trkpt>
      <trkpt lat="45.33313" lon="6.12061">
        <ele>1098.44</ele>
        <time>2016-09-10T05:44:29Z</time>
      </trkpt>
      <trkpt lat="45.33289" lon="6.12087">
        <ele>1098.44</ele>
        <time>2016-09-10T05:44:54Z</time>
      </trkpt>
      <trkpt lat="45.33267" lon="6.12107">
        <ele>1100.37</ele>
        <time>2016-09-10T05:45:15Z</time>
      </trkpt>
      <trkpt lat="45.33239" lon="6.12131">
        <ele>1105.65</ele>
        <time>2016-09-10T05:45:45Z</time>
      </trkpt>
      <trkpt lat="45.33203" lon="6.1214">
        <ele>1110.46</ele>
        <time>2016-09-10T05:46:18Z</time>
      </trkpt>
      <trkpt lat="45.3318" lon="6.12144">
        <ele>1114.31</ele>
        <time>2016-09-10T05:46:42Z</time>
      </trkpt>
      <trkpt lat="45.33156" lon="6.12146">
        <ele>1117.67</ele>
        <time>2016-09-10T05:47:07Z</time>
      </trkpt>
      <trkpt lat="45.33133" lon="6.12149">
        <ele>1119.59</ele>
        <time>2016-09-10T05:47:30Z</time>
      </trkpt>
      <trkpt lat="45.33108" lon="6.12157">
        <ele>1120.07</ele>
        <time>2016-09-10T05:47:54Z</time>
      </trkpt>
      <trkpt lat="45.33062" lon="6.12159">
        <ele>1128.24</ele>
        <time>2016-09-10T05:48:46Z</time>
      </trkpt>
      <trkpt lat="45.33028" lon="6.12174">
        <ele>1134.01</ele>
        <time>2016-09-10T05:49:23Z</time>
      </trkpt>
      <trkpt lat="45.33002" lon="6.12207">
        <ele>1139.3</ele>
        <time>2016-09-10T05:50:01Z</time>
      </trkpt>
      <trkpt lat="45.32977" lon="6.1223">
        <ele>1144.59</ele>
        <time>2016-09-10T05:50:39Z</time>
      </trkpt>
      <trkpt lat="45.32959" lon="6.1225">
        <ele>1149.87</ele>
        <time>2016-09-10T05:51:06Z</time>
      </trkpt>
      <trkpt lat="45.3294" lon="6.12269">
        <ele>1154.68</ele>
        <time>2016-09-10T05:51:36Z</time>
      </trkpt>
      <trkpt lat="45.32914" lon="6.12299">
        <ele>1161.41</ele>
        <time>2016-09-10T05:52:19Z</time>
      </trkpt>
      <trkpt lat="45.32892" lon="6.12328">
        <ele>1167.18</ele>
        <time>2016-09-10T05:53:00Z</time>
      </trkpt>
      <trkpt lat="45.32875" lon="6.12355">
        <ele>1169.58</ele>
        <time>2016-09-10T05:53:29Z</time>
      </trkpt>
      <trkpt lat="45.32853" lon="6.12381">
        <ele>1176.31</ele>
        <time>2016-09-10T05:54:09Z</time>
      </trkpt>
      <trkpt lat="45.32822" lon="6.12385">
        <ele>1182.56</ele>
        <time>2016-09-10T05:54:48Z</time>
      </trkpt>
      <trkpt lat="45.32791" lon="6.12398">
        <ele>1190.73</ele>
        <time>2016-09-10T05:55:31Z</time>
      </trkpt>
      <trkpt lat="45.32768" lon="6.12413">
        <ele>1199.86</ele>
        <time>2016-09-10T05:56:12Z</time>
      </trkpt>
      <trkpt lat="45.32745" lon="6.12421">
        <ele>1203.23</ele>
        <time>2016-09-10T05:56:45Z</time>
      </trkpt>
      <trkpt lat="45.32722" lon="6.12447">
        <ele>1210.92</ele>
        <time>2016-09-10T05:57:22Z</time>
      </trkpt>
      <trkpt lat="45.32703" lon="6.12466">
        <ele>1212.36</ele>
        <time>2016-09-10T05:57:57Z</time>
      </trkpt>
      <trkpt lat="45.32681" lon="6.12485">
        <ele>1219.57</ele>
        <time>2016-09-10T05:58:33Z</time>
      </trkpt>
      <trkpt lat="45.32661" lon="6.12508">
        <ele>1223.9</ele>
        <time>2016-09-10T05:59:10Z</time>
      </trkpt>
      <trkpt lat="45.32637" lon="6.12526">
        <ele>1232.55</ele>
        <time>2016-09-10T05:59:53Z</time>
      </trkpt>
      <trkpt lat="45.32613" lon="6.12552">
        <ele>1240.24</ele>
        <time>2016-09-10T06:00:38Z</time>
      </trkpt>
      <trkpt lat="45.3257" lon="6.12575">
        <ele>1252.74</ele>
        <time>2016-09-10T06:02:00Z</time>
      </trkpt>
      <trkpt lat="45.32546" lon="6.12595">
        <ele>1260.91</ele>
        <time>2016-09-10T06:02:48Z</time>
      </trkpt>
      <trkpt lat="45.32524" lon="6.12609">
        <ele>1267.64</ele>
        <time>2016-09-10T06:03:26Z</time>
      </trkpt>
      <trkpt lat="45.32504" lon="6.12634">
        <ele>1278.69</ele>
        <time>2016-09-10T06:04:20Z</time>
      </trkpt>
      <trkpt lat="45.32483" lon="6.12649">
        <ele>1284.46</ele>
        <time>2016-09-10T06:05:03Z</time>
      </trkpt>
      <trkpt lat="45.32457" lon="6.12651">
        <ele>1289.75</ele>
        <time>2016-09-10T06:05:40Z</time>
      </trkpt>
      <trkpt lat="45.32412" lon="6.12643">
        <ele>1299.36</ele>
        <time>2016-09-10T06:06:49Z</time>
      </trkpt>
      <trkpt lat="45.32389" lon="6.12634">
        <ele>1299.36</ele>
        <time>2016-09-10T06:07:55Z</time>
      </trkpt>
      <trkpt lat="45.32339" lon="6.12649">
        <ele>1314.74</ele>
        <time>2016-09-10T06:09:17Z</time>
      </trkpt>
      <trkpt lat="45.32313" lon="6.12656">
        <ele>1322.91</ele>
        <time>2016-09-10T06:10:02Z</time>
      </trkpt>
      <trkpt lat="45.3228" lon="6.12695">
        <ele>1338.77</ele>
        <time>2016-09-10T06:11:22Z</time>
      </trkpt>
      <trkpt lat="45.32261" lon="6.12721">
        <ele>1347.91</ele>
        <time>2016-09-10T06:12:11Z</time>
      </trkpt>
      <trkpt lat="45.32228" lon="6.12764">
        <ele>1360.4</ele>
        <time>2016-09-10T06:13:37Z</time>
      </trkpt>
      <trkpt lat="45.32208" lon="6.12779">
        <ele>1364.73</ele>
        <time>2016-09-10T06:15:06Z</time>
      </trkpt>
      <trkpt lat="45.32183" lon="6.12788">
        <ele>1370.98</ele>
        <time>2016-09-10T06:15:44Z</time>
      </trkpt>
      <trkpt lat="45.32159" lon="6.12815">
        <ele>1379.63</ele>
        <time>2016-09-10T06:16:33Z</time>
      </trkpt>
      <trkpt lat="45.32158" lon="6.12867">
        <ele>1393.09</ele>
        <time>2016-09-10T06:18:05Z</time>
      </trkpt>
      <trkpt lat="45.32133" lon="6.1287">
        <ele>1401.26</ele>
        <time>2016-09-10T06:18:56Z</time>
      </trkpt>
      <trkpt lat="45.32109" lon="6.12875">
        <ele>1407.99</ele>
        <time>2016-09-10T06:19:40Z</time>
      </trkpt>
      <trkpt lat="45.32085" lon="6.12881">
        <ele>1408.95</ele>
        <time>2016-09-10T06:20:13Z</time>
      </trkpt>
      <trkpt lat="45.32058" lon="6.12893">
        <ele>1419.04</ele>
        <time>2016-09-10T06:21:07Z</time>
      </trkpt>
      <trkpt lat="45.32017" lon="6.12921">
        <ele>1430.58</ele>
        <time>2016-09-10T06:23:17Z</time>
      </trkpt>
      <trkpt lat="45.32002" lon="6.1295">
        <ele>1444.04</ele>
        <time>2016-09-10T06:24:11Z</time>
      </trkpt>
      <trkpt lat="45.3199" lon="6.12987">
        <ele>1450.29</ele>
        <time>2016-09-10T06:25:04Z</time>
      </trkpt>
      <trkpt lat="45.31976" lon="6.13047">
        <ele>1466.15</ele>
        <time>2016-09-10T06:26:50Z</time>
      </trkpt>
      <trkpt lat="45.31961" lon="6.13078">
        <ele>1470.47</ele>
        <time>2016-09-10T06:27:29Z</time>
      </trkpt>
      <trkpt lat="45.31966" lon="6.13111">
        <ele>1474.8</ele>
        <time>2016-09-10T06:28:20Z</time>
      </trkpt>
      <trkpt lat="45.31952" lon="6.13157">
        <ele>1493.55</ele>
        <time>2016-09-10T06:30:48Z</time>
      </trkpt>
      <trkpt lat="45.3196" lon="6.13186">
        <ele>1499.31</ele>
        <time>2016-09-10T06:31:45Z</time>
      </trkpt>
      <trkpt lat="45.31945" lon="6.13225">
        <ele>1517.58</ele>
        <time>2016-09-10T06:33:40Z</time>
      </trkpt>
      <trkpt lat="45.31964" lon="6.13247">
        <ele>1527.67</ele>
        <time>2016-09-10T06:34:29Z</time>
      </trkpt>
      <trkpt lat="45.31988" lon="6.13259">
        <ele>1528.15</ele>
        <time>2016-09-10T06:35:19Z</time>
      </trkpt>
      <trkpt lat="45.32007" lon="6.13276">
        <ele>1532.48</ele>
        <time>2016-09-10T06:35:59Z</time>
      </trkpt>
      <trkpt lat="45.32005" lon="6.13311">
        <ele>1546.9</ele>
        <time>2016-09-10T06:39:20Z</time>
      </trkpt>
      <trkpt lat="45.32015" lon="6.13353">
        <ele>1562.76</ele>
        <time>2016-09-10T06:41:35Z</time>
      </trkpt>
      <trkpt lat="45.31969" lon="6.13344">
        <ele>1580.54</ele>
        <time>2016-09-10T06:43:05Z</time>
      </trkpt>
      <trkpt lat="45.31946" lon="6.13346">
        <ele>1585.35</ele>
        <time>2016-09-10T06:43:44Z</time>
      </trkpt>
      <trkpt lat="45.31923" lon="6.13348">
        <ele>1590.64</ele>
        <time>2016-09-10T06:44:18Z</time>
      </trkpt>
      <trkpt lat="45.319" lon="6.13343">
        <ele>1593.04</ele>
        <time>2016-09-10T06:45:06Z</time>
      </trkpt>
      <trkpt lat="45.31877" lon="6.13336">
        <ele>1593.52</ele>
        <time>2016-09-10T06:45:40Z</time>
      </trkpt>
      <trkpt lat="45.3185" lon="6.13336">
        <ele>1594</ele>
        <time>2016-09-10T06:46:22Z</time>
      </trkpt>
      <trkpt lat="45.31812" lon="6.1331">
        <ele>1604.1</ele>
        <time>2016-09-10T06:48:02Z</time>
      </trkpt>
      <trkpt lat="45.31793" lon="6.13284">
        <ele>1614.19</ele>
        <time>2016-09-10T06:48:41Z</time>
      </trkpt>
      <trkpt lat="45.31752" lon="6.13258">
        <ele>1619</ele>
        <time>2016-09-10T06:50:05Z</time>
      </trkpt>
      <trkpt lat="45.31724" lon="6.13211">
        <ele>1628.61</ele>
        <time>2016-09-10T06:51:35Z</time>
      </trkpt>
      <trkpt lat="45.31701" lon="6.13202">
        <ele>1636.3</ele>
        <time>2016-09-10T06:52:16Z</time>
      </trkpt>
      <trkpt lat="45.31675" lon="6.13203">
        <ele>1640.63</ele>
        <time>2016-09-10T06:52:59Z</time>
      </trkpt>
      <trkpt lat="45.31643" lon="6.13203">
        <ele>1644.47</ele>
        <time>2016-09-10T06:53:47Z</time>
      </trkpt>
      <trkpt lat="45.31616" lon="6.13198">
        <ele>1650.24</ele>
        <time>2016-09-10T06:54:34Z</time>
      </trkpt>
      <trkpt lat="45.31595" lon="6.13181">
        <ele>1653.12</ele>
        <time>2016-09-10T06:55:04Z</time>
      </trkpt>
      <trkpt lat="45.31572" lon="6.13185">
        <ele>1657.45</ele>
        <time>2016-09-10T06:55:40Z</time>
      </trkpt>
      <trkpt lat="45.31576" lon="6.13133">
        <ele>1664.18</ele>
        <time>2016-09-10T06:56:45Z</time>
      </trkpt>
      <trkpt lat="45.31592" lon="6.13107">
        <ele>1664.18</ele>
        <time>2016-09-10T06:57:24Z</time>
      </trkpt>
      <trkpt lat="45.31569" lon="6.13122">
        <ele>1668.51</ele>
        <time>2016-09-10T06:58:03Z</time>
      </trkpt>
      <trkpt lat="45.31545" lon="6.1312">
        <ele>1672.35</ele>
        <time>2016-09-10T06:58:30Z</time>
      </trkpt>
      <trkpt lat="45.31504" lon="6.13155">
        <ele>1685.33</ele>
        <time>2016-09-10T06:59:26Z</time>
      </trkpt>
      <trkpt lat="45.31482" lon="6.1318">
        <ele>1693.02</ele>
        <time>2016-09-10T07:00:05Z</time>
      </trkpt>
      <trkpt lat="45.31373" lon="6.13482">
        <ele>1807.9</ele>
        <time>2016-09-10T07:13:01Z</time>
      </trkpt>
      <trkpt lat="45.314" lon="6.13523">
        <ele>1824.24</ele>
        <time>2016-09-10T07:14:25Z</time>
      </trkpt>
      <trkpt lat="45.31406" lon="6.13565">
        <ele>1831.45</ele>
        <time>2016-09-10T07:15:14Z</time>
      </trkpt>
      <trkpt lat="45.3138" lon="6.13565">
        <ele>1828.56</ele>
        <time>2016-09-10T07:17:45Z</time>
      </trkpt>
      <trkpt lat="45.31417" lon="6.1357">
        <ele>1839.14</ele>
        <time>2016-09-10T07:19:03Z</time>
      </trkpt>
      <trkpt lat="45.31394" lon="6.13572">
        <ele>1843.95</ele>
        <time>2016-09-10T07:21:47Z</time>
      </trkpt>
      <trkpt lat="45.31374" lon="6.1359">
        <ele>1847.31</ele>
        <time>2016-09-10T07:22:23Z</time>
      </trkpt>
      <trkpt lat="45.31334" lon="6.13592">
        <ele>1869.42</ele>
        <time>2016-09-10T07:24:20Z</time>
      </trkpt>
      <trkpt lat="45.313" lon="6.13614">
        <ele>1885.76</ele>
        <time>2016-09-10T07:26:15Z</time>
      </trkpt>
      <trkpt lat="45.3127" lon="6.13576">
        <ele>1904.99</ele>
        <time>2016-09-10T07:28:06Z</time>
      </trkpt>
      <trkpt lat="45.31238" lon="6.13562">
        <ele>1919.41</ele>
        <time>2016-09-10T07:30:14Z</time>
      </trkpt>
      <trkpt lat="45.31215" lon="6.13589">
        <ele>1938.64</ele>
        <time>2016-09-10T07:32:06Z</time>
      </trkpt>
      <trkpt lat="45.31199" lon="6.13615">
        <ele>1946.33</ele>
        <time>2016-09-10T07:33:08Z</time>
      </trkpt>
      <trkpt lat="45.31169" lon="6.13655">
        <ele>1973.72</ele>
        <time>2016-09-10T07:35:59Z</time>
      </trkpt>
      <trkpt lat="45.31138" lon="6.13681">
        <ele>1996.32</ele>
        <time>2016-09-10T07:38:47Z</time>
      </trkpt>
      <trkpt lat="45.31124" lon="6.13657">
        <ele>2010.25</ele>
        <time>2016-09-10T07:45:11Z</time>
      </trkpt>
      <trkpt lat="45.3109" lon="6.13657">
        <ele>2031.88</ele>
        <time>2016-09-10T07:49:03Z</time>
      </trkpt>
      <trkpt lat="45.31053" lon="6.13668">
        <ele>2050.63</ele>
        <time>2016-09-10T07:51:17Z</time>
      </trkpt>
      <trkpt lat="45.31015" lon="6.13696">
        <ele>2073.22</ele>
        <time>2016-09-10T07:53:16Z</time>
      </trkpt>
      <trkpt lat="45.30997" lon="6.13726">
        <ele>2078.51</ele>
        <time>2016-09-10T07:54:18Z</time>
      </trkpt>
      <trkpt lat="45.30982" lon="6.13752">
        <ele>2086.68</ele>
        <time>2016-09-10T07:55:41Z</time>
      </trkpt>
      <trkpt lat="45.30961" lon="6.138">
        <ele>2103.98</ele>
        <time>2016-09-10T07:59:14Z</time>
      </trkpt>
      <trkpt lat="45.30955" lon="6.13831">
        <ele>2116.96</ele>
        <time>2016-09-10T08:00:28Z</time>
      </trkpt>
      <trkpt lat="45.30938" lon="6.13865">
        <ele>2144.84</ele>
        <time>2016-09-10T08:02:32Z</time>
      </trkpt>
      <trkpt lat="45.30917" lon="6.13906">
        <ele>2146.76</ele>
        <time>2016-09-10T08:05:03Z</time>
      </trkpt>
      <trkpt lat="45.30914" lon="6.13941">
        <ele>2145.8</ele>
        <time>2016-09-10T08:05:50Z</time>
      </trkpt>
      <trkpt lat="45.30894" lon="6.13961">
        <ele>2140.99</ele>
        <time>2016-09-10T08:09:04Z</time>
      </trkpt>
      <trkpt lat="45.30886" lon="6.1401">
        <ele>2138.59</ele>
        <time>2016-09-10T08:11:15Z</time>
      </trkpt>
      <trkpt lat="45.30877" lon="6.14071">
        <ele>2145.32</ele>
        <time>2016-09-10T08:12:45Z</time>
      </trkpt>
      <trkpt lat="45.30878" lon="6.14112">
        <ele>2147.24</ele>
        <time>2016-09-10T08:13:19Z</time>
      </trkpt>
      <trkpt lat="45.30884" lon="6.14146">
        <ele>2153.01</ele>
        <time>2016-09-10T08:13:47Z</time>
      </trkpt>
      <trkpt lat="45.30883" lon="6.1418">
        <ele>2160.7</ele>
        <time>2016-09-10T08:14:30Z</time>
      </trkpt>
      <trkpt lat="45.30889" lon="6.14214">
        <ele>2165.03</ele>
        <time>2016-09-10T08:15:07Z</time>
      </trkpt>
      <trkpt lat="45.30894" lon="6.14247">
        <ele>2168.87</ele>
        <time>2016-09-10T08:15:43Z</time>
      </trkpt>
      <trkpt lat="45.30873" lon="6.143">
        <ele>2184.73</ele>
        <time>2016-09-10T08:17:25Z</time>
      </trkpt>
      <trkpt lat="45.30854" lon="6.14318">
        <ele>2192.42</ele>
        <time>2016-09-10T08:18:26Z</time>
      </trkpt>
      <trkpt lat="45.30837" lon="6.1434">
        <ele>2201.08</ele>
        <time>2016-09-10T08:19:35Z</time>
      </trkpt>
      <trkpt lat="45.30804" lon="6.14375">
        <ele>2223.67</ele>
        <time>2016-09-10T08:21:50Z</time>
      </trkpt>
      <trkpt lat="45.30781" lon="6.14378">
        <ele>2234.24</ele>
        <time>2016-09-10T08:23:03Z</time>
      </trkpt>
      <trkpt lat="45.30743" lon="6.14406">
        <ele>2259.24</ele>
        <time>2016-09-10T08:25:53Z</time>
      </trkpt>
      <trkpt lat="45.30723" lon="6.14442">
        <ele>2279.42</ele>
        <time>2016-09-10T08:30:33Z</time>
      </trkpt>
      <trkpt lat="45.30699" lon="6.14478">
        <ele>2302.49</ele>
        <time>2016-09-10T08:33:33Z</time>
      </trkpt>
      <trkpt lat="45.30687" lon="6.14531">
        <ele>2324.12</ele>
        <time>2016-09-10T08:36:12Z</time>
      </trkpt>
      <trkpt lat="45.30676" lon="6.14588">
        <ele>2345.75</ele>
        <time>2016-09-10T08:38:50Z</time>
      </trkpt>
      <trkpt lat="45.30643" lon="6.14616">
        <ele>2366.9</ele>
        <time>2016-09-10T08:42:53Z</time>
      </trkpt>
      <trkpt lat="45.30623" lon="6.14663">
        <ele>2386.61</ele>
        <time>2016-09-10T08:45:26Z</time>
      </trkpt>
      <trkpt lat="45.30618" lon="6.14699">
        <ele>2391.42</ele>
        <time>2016-09-10T08:46:14Z</time>
      </trkpt>
      <trkpt lat="45.30651" lon="6.14736">
        <ele>2397.67</ele>
        <time>2016-09-10T08:48:49Z</time>
      </trkpt>
      <trkpt lat="45.30642" lon="6.1479">
        <ele>2415.93</ele>
        <time>2016-09-10T08:51:27Z</time>
      </trkpt>
      <trkpt lat="45.30623" lon="6.1484">
        <ele>2432.27</ele>
        <time>2016-09-10T08:53:33Z</time>
      </trkpt>
      <trkpt lat="45.30586" lon="6.14851">
        <ele>2439</ele>
        <time>2016-09-10T09:00:54Z</time>
      </trkpt>
      <trkpt lat="45.30567" lon="6.1483">
        <ele>2436.6</ele>
        <time>2016-09-10T09:01:43Z</time>
      </trkpt>
      <trkpt lat="45.30543" lon="6.14817">
        <ele>2436.6</ele>
        <time>2016-09-10T09:02:21Z</time>
      </trkpt>
      <trkpt lat="45.30515" lon="6.14809">
        <ele>2438.52</ele>
        <time>2016-09-10T09:02:50Z</time>
      </trkpt>
      <trkpt lat="45.30486" lon="6.14804">
        <ele>2442.37</ele>
        <time>2016-09-10T09:03:31Z</time>
      </trkpt>
      <trkpt lat="45.30459" lon="6.14805">
        <ele>2454.38</ele>
        <time>2016-09-10T09:04:34Z</time>
      </trkpt>
      <trkpt lat="45.30436" lon="6.14786">
        <ele>2463.04</ele>
        <time>2016-09-10T09:06:58Z</time>
      </trkpt>
      <trkpt lat="45.30402" lon="6.14776">
        <ele>2483.22</ele>
        <time>2016-09-10T09:10:00Z</time>
      </trkpt>
      <trkpt lat="45.30379" lon="6.14757">
        <ele>2491.39</ele>
        <time>2016-09-10T09:11:37Z</time>
      </trkpt>
      <trkpt lat="45.3036" lon="6.14731">
        <ele>2496.68</ele>
        <time>2016-09-10T09:12:30Z</time>
      </trkpt>
      <trkpt lat="45.30347" lon="6.14692">
        <ele>2496.68</ele>
        <time>2016-09-10T09:13:24Z</time>
      </trkpt>
      <trkpt lat="45.30316" lon="6.14649">
        <ele>2510.14</ele>
        <time>2016-09-10T09:15:18Z</time>
      </trkpt>
      <trkpt lat="45.30282" lon="6.14603">
        <ele>2523.6</ele>
        <time>2016-09-10T09:18:12Z</time>
      </trkpt>
      <trkpt lat="45.30258" lon="6.14592">
        <ele>2536.58</ele>
        <time>2016-09-10T09:19:25Z</time>
      </trkpt>
      <trkpt lat="45.30237" lon="6.14576">
        <ele>2542.34</ele>
        <time>2016-09-10T09:20:22Z</time>
      </trkpt>
      <trkpt lat="45.30215" lon="6.14565">
        <ele>2549.55</ele>
        <time>2016-09-10T09:21:20Z</time>
      </trkpt>
      <trkpt lat="45.30194" lon="6.14547">
        <ele>2552.92</ele>
        <time>2016-09-10T09:22:24Z</time>
      </trkpt>
      <trkpt lat="45.30152" lon="6.14541">
        <ele>2568.78</ele>
        <time>2016-09-10T09:24:47Z</time>
      </trkpt>
      <trkpt lat="45.30117" lon="6.14525">
        <ele>2577.43</ele>
        <time>2016-09-10T09:27:02Z</time>
      </trkpt>
      <trkpt lat="45.30089" lon="6.14521">
        <ele>2591.37</ele>
        <time>2016-09-10T09:31:47Z</time>
      </trkpt>
      <trkpt lat="45.30064" lon="6.14523">
        <ele>2598.58</ele>
        <time>2016-09-10T09:32:38Z</time>
      </trkpt>
      <trkpt lat="45.3004" lon="6.14522">
        <ele>2605.31</ele>
        <time>2016-09-10T09:33:34Z</time>
      </trkpt>
      <trkpt lat="45.30015" lon="6.14532">
        <ele>2614.92</ele>
        <time>2016-09-10T09:34:50Z</time>
      </trkpt>
      <trkpt lat="45.2999" lon="6.14538">
        <ele>2618.29</ele>
        <time>2016-09-10T09:35:50Z</time>
      </trkpt>
      <trkpt lat="45.29967" lon="6.14541">
        <ele>2617.81</ele>
        <time>2016-09-10T09:36:43Z</time>
      </trkpt>
      <trkpt lat="45.29926" lon="6.14546">
        <ele>2647.61</ele>
        <time>2016-09-10T09:40:42Z</time>
      </trkpt>
      <trkpt lat="45.29892" lon="6.14544">
        <ele>2662.99</ele>
        <time>2016-09-10T09:43:11Z</time>
      </trkpt>
      <trkpt lat="45.2989" lon="6.14504">
        <ele>2670.2</ele>
        <time>2016-09-10T09:47:17Z</time>
      </trkpt>
      <trkpt lat="45.29887" lon="6.1447">
        <ele>2675.49</ele>
        <time>2016-09-10T09:48:18Z</time>
      </trkpt>
      <trkpt lat="45.29862" lon="6.14454">
        <ele>2680.29</ele>
        <time>2016-09-10T09:49:04Z</time>
      </trkpt>
      <trkpt lat="45.29843" lon="6.14434">
        <ele>2685.1</ele>
        <time>2016-09-10T09:50:09Z</time>
      </trkpt>
      <trkpt lat="45.29819" lon="6.14414">
        <ele>2690.39</ele>
        <time>2016-09-10T09:50:55Z</time>
      </trkpt>
      <trkpt lat="45.29798" lon="6.14395">
        <ele>2694.23</ele>
        <time>2016-09-10T09:51:44Z</time>
      </trkpt>
      <trkpt lat="45.29761" lon="6.14372">
        <ele>2698.56</ele>
        <time>2016-09-10T09:55:27Z</time>
      </trkpt>
      <trkpt lat="45.29781" lon="6.14378">
        <ele>2699.04</ele>
        <time>2016-09-10T10:00:30Z</time>
      </trkpt>
      <trkpt lat="45.2977" lon="6.14417">
        <ele>2676.93</ele>
        <time>2016-09-10T10:03:48Z</time>
      </trkpt>
      <trkpt lat="45.29737" lon="6.14395">
        <ele>2687.02</ele>
        <time>2016-09-10T10:10:49Z</time>
      </trkpt>
      <trkpt lat="45.29707" lon="6.14383">
        <ele>2700</ele>
        <time>2016-09-10T10:15:22Z</time>
      </trkpt>
      <trkpt lat="45.29685" lon="6.14365">
        <ele>2717.3</ele>
        <time>2016-09-10T10:21:23Z</time>
      </trkpt>
      <trkpt lat="45.29661" lon="6.14368">
        <ele>2724.99</ele>
        <time>2016-09-10T10:22:32Z</time>
      </trkpt>
      <trkpt lat="45.29626" lon="6.1435">
        <ele>2731.24</ele>
        <time>2016-09-10T10:26:00Z</time>
      </trkpt>
      <trkpt lat="45.29589" lon="6.14334">
        <ele>2755.76</ele>
        <time>2016-09-10T10:29:07Z</time>
      </trkpt>
      <trkpt lat="45.29595" lon="6.14376">
        <ele>2778.35</ele>
        <time>2016-09-10T10:35:10Z</time>
      </trkpt>
      <trkpt lat="45.29585" lon="6.14404">
        <ele>2782.67</ele>
        <time>2016-09-10T10:37:18Z</time>
      </trkpt>
      <trkpt lat="45.29599" lon="6.14449">
        <ele>2807.67</ele>
        <time>2016-09-10T10:45:05Z</time>
      </trkpt>
      <trkpt lat="45.29582" lon="6.14482">
        <ele>2829.3</ele>
        <time>2016-09-10T10:51:56Z</time>
      </trkpt>
      <trkpt lat="45.29579" lon="6.14531">
        <ele>2850.45</ele>
        <time>2016-09-10T11:00:26Z</time>
      </trkpt>
      <trkpt lat="45.29578" lon="6.14575">
        <ele>2871.11</ele>
        <time>2016-09-10T11:05:06Z</time>
      </trkpt>
      <trkpt lat="45.29567" lon="6.14618">
        <ele>2895.63</ele>
        <time>2016-09-10T11:12:25Z</time>
      </trkpt>
      <trkpt lat="45.29573" lon="6.14641">
        <ele>2914.85</ele>
        <time>2016-09-10T11:17:46Z</time>
      </trkpt>
      <trkpt lat="45.29567" lon="6.14623">
        <ele>2906.2</ele>
        <time>2016-09-10T11:43:06Z</time>
      </trkpt>
      <trkpt lat="45.29565" lon="6.14587">
        <ele>2888.42</ele>
        <time>2016-09-10T11:47:56Z</time>
      </trkpt>
      <trkpt lat="45.2958" lon="6.14541">
        <ele>2852.37</ele>
        <time>2016-09-10T11:55:15Z</time>
      </trkpt>
      <trkpt lat="45.29583" lon="6.14507">
        <ele>2839.87</ele>
        <time>2016-09-10T12:01:35Z</time>
      </trkpt>
      <trkpt lat="45.29588" lon="6.14468">
        <ele>2824.97</ele>
        <time>2016-09-10T12:08:26Z</time>
      </trkpt>
      <trkpt lat="45.29589" lon="6.14427">
        <ele>2797.09</ele>
        <time>2016-09-10T12:14:40Z</time>
      </trkpt>
      <trkpt lat="45.2959" lon="6.14389">
        <ele>2761.52</ele>
        <time>2016-09-10T12:19:14Z</time>
      </trkpt>
      <trkpt lat="45.29591" lon="6.14346">
        <ele>2750.95</ele>
        <time>2016-09-10T12:23:16Z</time>
      </trkpt>
      <trkpt lat="45.29619" lon="6.14364">
        <ele>2749.51</ele>
        <time>2016-09-10T12:31:02Z</time>
      </trkpt>
      <trkpt lat="45.29665" lon="6.14384">
        <ele>2724.99</ele>
        <time>2016-09-10T12:32:39Z</time>
      </trkpt>
      <trkpt lat="45.29689" lon="6.1438">
        <ele>2711.06</ele>
        <time>2016-09-10T12:33:16Z</time>
      </trkpt>
      <trkpt lat="45.29716" lon="6.14406">
        <ele>2695.19</ele>
        <time>2016-09-10T12:39:17Z</time>
      </trkpt>
      <trkpt lat="45.2975" lon="6.14408">
        <ele>2678.37</ele>
        <time>2016-09-10T12:43:13Z</time>
      </trkpt>
      <trkpt lat="45.29756" lon="6.14445">
        <ele>2668.76</ele>
        <time>2016-09-10T12:44:00Z</time>
      </trkpt>
      <trkpt lat="45.29775" lon="6.14468">
        <ele>2652.9</ele>
        <time>2016-09-10T12:44:48Z</time>
      </trkpt>
      <trkpt lat="45.29788" lon="6.14496">
        <ele>2648.57</ele>
        <time>2016-09-10T12:45:27Z</time>
      </trkpt>
      <trkpt lat="45.29809" lon="6.14508">
        <ele>2641.84</ele>
        <time>2016-09-10T12:45:56Z</time>
      </trkpt>
      <trkpt lat="45.29827" lon="6.14529">
        <ele>2636.55</ele>
        <time>2016-09-10T12:46:32Z</time>
      </trkpt>
      <trkpt lat="45.29856" lon="6.14557">
        <ele>2655.78</ele>
        <time>2016-09-10T12:49:37Z</time>
      </trkpt>
      <trkpt lat="45.29886" lon="6.14538">
        <ele>2667.8</ele>
        <time>2016-09-10T12:51:26Z</time>
      </trkpt>
      <trkpt lat="45.29924" lon="6.14551">
        <ele>2660.59</ele>
        <time>2016-09-10T12:54:56Z</time>
      </trkpt>
      <trkpt lat="45.29961" lon="6.14578">
        <ele>2619.25</ele>
        <time>2016-09-10T12:58:28Z</time>
      </trkpt>
      <trkpt lat="45.29985" lon="6.14555">
        <ele>2616.85</ele>
        <time>2016-09-10T12:59:37Z</time>
      </trkpt>
      <trkpt lat="45.30009" lon="6.14531">
        <ele>2609.64</ele>
        <time>2016-09-10T13:00:19Z</time>
      </trkpt>
      <trkpt lat="45.30041" lon="6.14526">
        <ele>2606.27</ele>
        <time>2016-09-10T13:00:57Z</time>
      </trkpt>
      <trkpt lat="45.30067" lon="6.14534">
        <ele>2597.62</ele>
        <time>2016-09-10T13:01:31Z</time>
      </trkpt>
      <trkpt lat="45.30092" lon="6.14558">
        <ele>2589.45</ele>
        <time>2016-09-10T13:02:03Z</time>
      </trkpt>
      <trkpt lat="45.30118" lon="6.14579">
        <ele>2579.84</ele>
        <time>2016-09-10T13:02:40Z</time>
      </trkpt>
      <trkpt lat="45.30138" lon="6.14594">
        <ele>2572.63</ele>
        <time>2016-09-10T13:03:15Z</time>
      </trkpt>
      <trkpt lat="45.30154" lon="6.14561">
        <ele>2561.57</ele>
        <time>2016-09-10T13:04:05Z</time>
      </trkpt>
      <trkpt lat="45.30183" lon="6.14558">
        <ele>2550.51</ele>
        <time>2016-09-10T13:04:54Z</time>
      </trkpt>
      <trkpt lat="45.30211" lon="6.14574">
        <ele>2544.27</ele>
        <time>2016-09-10T13:05:30Z</time>
      </trkpt>
      <trkpt lat="45.30236" lon="6.14584">
        <ele>2538.02</ele>
        <time>2016-09-10T13:06:02Z</time>
      </trkpt>
      <trkpt lat="45.30258" lon="6.14598">
        <ele>2533.21</ele>
        <time>2016-09-10T13:06:40Z</time>
      </trkpt>
      <trkpt lat="45.30283" lon="6.14608">
        <ele>2523.12</ele>
        <time>2016-09-10T13:07:34Z</time>
      </trkpt>
      <trkpt lat="45.30317" lon="6.14649">
        <ele>2514.47</ele>
        <time>2016-09-10T13:09:36Z</time>
      </trkpt>
      <trkpt lat="45.30337" lon="6.14673">
        <ele>2505.33</ele>
        <time>2016-09-10T13:10:11Z</time>
      </trkpt>
      <trkpt lat="45.30349" lon="6.147">
        <ele>2501.01</ele>
        <time>2016-09-10T13:10:39Z</time>
      </trkpt>
      <trkpt lat="45.30361" lon="6.1474">
        <ele>2497.64</ele>
        <time>2016-09-10T13:11:22Z</time>
      </trkpt>
      <trkpt lat="45.30366" lon="6.14771">
        <ele>2497.16</ele>
        <time>2016-09-10T13:11:54Z</time>
      </trkpt>
      <trkpt lat="45.30398" lon="6.14808">
        <ele>2476.01</ele>
        <time>2016-09-10T13:13:49Z</time>
      </trkpt>
      <trkpt lat="45.30429" lon="6.14815">
        <ele>2454.86</ele>
        <time>2016-09-10T13:16:57Z</time>
      </trkpt>
      <trkpt lat="45.30476" lon="6.14822">
        <ele>2437.56</ele>
        <time>2016-09-10T13:18:47Z</time>
      </trkpt>
      <trkpt lat="45.30501" lon="6.14819">
        <ele>2428.91</ele>
        <time>2016-09-10T13:19:19Z</time>
      </trkpt>
      <trkpt lat="45.30535" lon="6.14825">
        <ele>2422.66</ele>
        <time>2016-09-10T13:20:00Z</time>
      </trkpt>
      <trkpt lat="45.3056" lon="6.1483">
        <ele>2424.1</ele>
        <time>2016-09-10T13:20:36Z</time>
      </trkpt>
      <trkpt lat="45.30587" lon="6.14848">
        <ele>2438.04</ele>
        <time>2016-09-10T13:28:34Z</time>
      </trkpt>
      <trkpt lat="45.30624" lon="6.14845">
        <ele>2433.23</ele>
        <time>2016-09-10T13:30:46Z</time>
      </trkpt>
      <trkpt lat="45.30643" lon="6.14823">
        <ele>2425.06</ele>
        <time>2016-09-10T13:31:58Z</time>
      </trkpt>
      <trkpt lat="45.30651" lon="6.14791">
        <ele>2420.26</ele>
        <time>2016-09-10T13:32:44Z</time>
      </trkpt>
      <trkpt lat="45.3066" lon="6.14758">
        <ele>2414.01</ele>
        <time>2016-09-10T13:33:36Z</time>
      </trkpt>
      <trkpt lat="45.30645" lon="6.14713">
        <ele>2394.78</ele>
        <time>2016-09-10T13:35:54Z</time>
      </trkpt>
      <trkpt lat="45.3067" lon="6.14666">
        <ele>2369.31</ele>
        <time>2016-09-10T13:38:08Z</time>
      </trkpt>
      <trkpt lat="45.3067" lon="6.14597">
        <ele>2352</ele>
        <time>2016-09-10T13:40:02Z</time>
      </trkpt>
      <trkpt lat="45.30686" lon="6.14542">
        <ele>2328.45</ele>
        <time>2016-09-10T13:42:28Z</time>
      </trkpt>
      <trkpt lat="45.30701" lon="6.14488">
        <ele>2311.15</ele>
        <time>2016-09-10T13:44:57Z</time>
      </trkpt>
      <trkpt lat="45.30718" lon="6.14446">
        <ele>2282.31</ele>
        <time>2016-09-10T13:49:49Z</time>
      </trkpt>
      <trkpt lat="45.3075" lon="6.14397">
        <ele>2252.51</ele>
        <time>2016-09-10T13:52:12Z</time>
      </trkpt>
      <trkpt lat="45.30772" lon="6.14383">
        <ele>2240.01</ele>
        <time>2016-09-10T13:53:22Z</time>
      </trkpt>
      <trkpt lat="45.30785" lon="6.14356">
        <ele>2231.36</ele>
        <time>2016-09-10T13:54:22Z</time>
      </trkpt>
      <trkpt lat="45.30803" lon="6.14335">
        <ele>2220.3</ele>
        <time>2016-09-10T13:55:27Z</time>
      </trkpt>
      <trkpt lat="45.30824" lon="6.14316">
        <ele>2210.21</ele>
        <time>2016-09-10T13:56:30Z</time>
      </trkpt>
      <trkpt lat="45.30848" lon="6.14298">
        <ele>2198.19</ele>
        <time>2016-09-10T13:57:38Z</time>
      </trkpt>
      <trkpt lat="45.30884" lon="6.14264">
        <ele>2179.45</ele>
        <time>2016-09-10T13:59:23Z</time>
      </trkpt>
      <trkpt lat="45.30904" lon="6.14247">
        <ele>2170.31</ele>
        <time>2016-09-10T14:00:05Z</time>
      </trkpt>
      <trkpt lat="45.30917" lon="6.1418">
        <ele>2159.74</ele>
        <time>2016-09-10T14:01:30Z</time>
      </trkpt>
      <trkpt lat="45.30933" lon="6.14151">
        <ele>2153.01</ele>
        <time>2016-09-10T14:02:13Z</time>
      </trkpt>
      <trkpt lat="45.3094" lon="6.14114">
        <ele>2146.76</ele>
        <time>2016-09-10T14:02:49Z</time>
      </trkpt>
      <trkpt lat="45.30944" lon="6.14072">
        <ele>2143.4</ele>
        <time>2016-09-10T14:03:29Z</time>
      </trkpt>
      <trkpt lat="45.30942" lon="6.1404">
        <ele>2144.84</ele>
        <time>2016-09-10T14:04:27Z</time>
      </trkpt>
      <trkpt lat="45.30947" lon="6.14">
        <ele>2139.55</ele>
        <time>2016-09-10T14:05:17Z</time>
      </trkpt>
      <trkpt lat="45.3095" lon="6.13959">
        <ele>2135.71</ele>
        <time>2016-09-10T14:05:56Z</time>
      </trkpt>
      <trkpt lat="45.30959" lon="6.13928">
        <ele>2133.3</ele>
        <time>2016-09-10T14:06:25Z</time>
      </trkpt>
      <trkpt lat="45.30963" lon="6.13888">
        <ele>2133.3</ele>
        <time>2016-09-10T14:07:07Z</time>
      </trkpt>
      <trkpt lat="45.30951" lon="6.13852">
        <ele>2134.26</ele>
        <time>2016-09-10T14:07:52Z</time>
      </trkpt>
      <trkpt lat="45.30963" lon="6.13793">
        <ele>2114.08</ele>
        <time>2016-09-10T14:10:08Z</time>
      </trkpt>
      <trkpt lat="45.30988" lon="6.13743">
        <ele>2089.08</ele>
        <time>2016-09-10T14:13:10Z</time>
      </trkpt>
      <trkpt lat="45.31003" lon="6.13714">
        <ele>2080.91</ele>
        <time>2016-09-10T14:14:14Z</time>
      </trkpt>
      <trkpt lat="45.31019" lon="6.1369">
        <ele>2073.7</ele>
        <time>2016-09-10T14:14:53Z</time>
      </trkpt>
      <trkpt lat="45.31038" lon="6.1367">
        <ele>2064.09</ele>
        <time>2016-09-10T14:15:44Z</time>
      </trkpt>
      <trkpt lat="45.31076" lon="6.13672">
        <ele>2041.5</ele>
        <time>2016-09-10T14:18:08Z</time>
      </trkpt>
      <trkpt lat="45.31095" lon="6.13651">
        <ele>2027.56</ele>
        <time>2016-09-10T14:19:21Z</time>
      </trkpt>
      <trkpt lat="45.31125" lon="6.13674">
        <ele>2008.33</ele>
        <time>2016-09-10T14:22:03Z</time>
      </trkpt>
      <trkpt lat="45.31161" lon="6.13659">
        <ele>1979.97</ele>
        <time>2016-09-10T14:25:48Z</time>
      </trkpt>
      <trkpt lat="45.31194" lon="6.1363">
        <ele>1956.9</ele>
        <time>2016-09-10T14:28:56Z</time>
      </trkpt>
      <trkpt lat="45.31211" lon="6.13601">
        <ele>1947.77</ele>
        <time>2016-09-10T14:30:02Z</time>
      </trkpt>
      <trkpt lat="45.31222" lon="6.13568">
        <ele>1939.6</ele>
        <time>2016-09-10T14:30:56Z</time>
      </trkpt>
      <trkpt lat="45.31252" lon="6.13581">
        <ele>1915.08</ele>
        <time>2016-09-10T14:32:58Z</time>
      </trkpt>
      <trkpt lat="45.31282" lon="6.13576">
        <ele>1892.01</ele>
        <time>2016-09-10T14:35:19Z</time>
      </trkpt>
      <trkpt lat="45.31323" lon="6.13585">
        <ele>1876.63</ele>
        <time>2016-09-10T14:37:41Z</time>
      </trkpt>
      <trkpt lat="45.31347" lon="6.13585">
        <ele>1863.17</ele>
        <time>2016-09-10T14:39:07Z</time>
      </trkpt>
      <trkpt lat="45.31371" lon="6.13581">
        <ele>1857.89</ele>
        <time>2016-09-10T14:40:01Z</time>
      </trkpt>
      <trkpt lat="45.31403" lon="6.13561">
        <ele>1844.43</ele>
        <time>2016-09-10T14:41:33Z</time>
      </trkpt>
      <trkpt lat="45.31424" lon="6.1353">
        <ele>1832.41</ele>
        <time>2016-09-10T14:47:20Z</time>
      </trkpt>
      <trkpt lat="45.31401" lon="6.13484">
        <ele>1818.47</ele>
        <time>2016-09-10T14:49:19Z</time>
      </trkpt>
      <trkpt lat="45.31378" lon="6.13439">
        <ele>1795.88</ele>
        <time>2016-09-10T14:51:12Z</time>
      </trkpt>
      <trkpt lat="45.31361" lon="6.13409">
        <ele>1790.59</ele>
        <time>2016-09-10T14:52:04Z</time>
      </trkpt>
      <trkpt lat="45.31388" lon="6.13387">
        <ele>1774.25</ele>
        <time>2016-09-10T14:53:59Z</time>
      </trkpt>
      <trkpt lat="45.31383" lon="6.13343">
        <ele>1759.35</ele>
        <time>2016-09-10T14:55:38Z</time>
      </trkpt>
      <trkpt lat="45.31411" lon="6.1332">
        <ele>1741.08</ele>
        <time>2016-09-10T14:57:32Z</time>
      </trkpt>
      <trkpt lat="45.31434" lon="6.13317">
        <ele>1733.39</ele>
        <time>2016-09-10T14:58:25Z</time>
      </trkpt>
      <trkpt lat="45.31461" lon="6.13294">
        <ele>1710.8</ele>
        <time>2016-09-10T15:00:22Z</time>
      </trkpt>
      <trkpt lat="45.31486" lon="6.13244">
        <ele>1695.42</ele>
        <time>2016-09-10T15:01:58Z</time>
      </trkpt>
      <trkpt lat="45.31492" lon="6.1321">
        <ele>1690.14</ele>
        <time>2016-09-10T15:02:34Z</time>
      </trkpt>
      <trkpt lat="45.31506" lon="6.13184">
        <ele>1686.77</ele>
        <time>2016-09-10T15:03:20Z</time>
      </trkpt>
      <trkpt lat="45.31526" lon="6.13155">
        <ele>1680.04</ele>
        <time>2016-09-10T15:04:10Z</time>
      </trkpt>
      <trkpt lat="45.3154" lon="6.13126">
        <ele>1675.23</ele>
        <time>2016-09-10T15:04:44Z</time>
      </trkpt>
      <trkpt lat="45.31569" lon="6.13122">
        <ele>1669.47</ele>
        <time>2016-09-10T15:05:27Z</time>
      </trkpt>
      <trkpt lat="45.31572" lon="6.13159">
        <ele>1657.45</ele>
        <time>2016-09-10T15:06:51Z</time>
      </trkpt>
      <trkpt lat="45.31601" lon="6.13182">
        <ele>1650.72</ele>
        <time>2016-09-10T15:08:19Z</time>
      </trkpt>
      <trkpt lat="45.31622" lon="6.13202">
        <ele>1647.36</ele>
        <time>2016-09-10T15:08:55Z</time>
      </trkpt>
      <trkpt lat="45.31646" lon="6.13204">
        <ele>1639.67</ele>
        <time>2016-09-10T15:09:49Z</time>
      </trkpt>
      <trkpt lat="45.31671" lon="6.13199">
        <ele>1634.86</ele>
        <time>2016-09-10T15:10:39Z</time>
      </trkpt>
      <trkpt lat="45.31719" lon="6.13208">
        <ele>1635.34</ele>
        <time>2016-09-10T15:12:19Z</time>
      </trkpt>
      <trkpt lat="45.31747" lon="6.13243">
        <ele>1626.21</ele>
        <time>2016-09-10T15:13:51Z</time>
      </trkpt>
      <trkpt lat="45.31787" lon="6.13273">
        <ele>1616.59</ele>
        <time>2016-09-10T15:15:39Z</time>
      </trkpt>
      <trkpt lat="45.31804" lon="6.13297">
        <ele>1609.86</ele>
        <time>2016-09-10T15:16:48Z</time>
      </trkpt>
      <trkpt lat="45.31818" lon="6.13323">
        <ele>1606.5</ele>
        <time>2016-09-10T15:17:35Z</time>
      </trkpt>
      <trkpt lat="45.31857" lon="6.13339">
        <ele>1592.56</ele>
        <time>2016-09-10T15:19:35Z</time>
      </trkpt>
      <trkpt lat="45.3188" lon="6.13339">
        <ele>1591.6</ele>
        <time>2016-09-10T15:20:13Z</time>
      </trkpt>
      <trkpt lat="45.31904" lon="6.13344">
        <ele>1590.16</ele>
        <time>2016-09-10T15:20:55Z</time>
      </trkpt>
      <trkpt lat="45.31927" lon="6.13346">
        <ele>1585.83</ele>
        <time>2016-09-10T15:21:55Z</time>
      </trkpt>
      <trkpt lat="45.31951" lon="6.13343">
        <ele>1584.87</ele>
        <time>2016-09-10T15:22:34Z</time>
      </trkpt>
      <trkpt lat="45.31975" lon="6.13344">
        <ele>1579.1</ele>
        <time>2016-09-10T15:23:13Z</time>
      </trkpt>
      <trkpt lat="45.32002" lon="6.13352">
        <ele>1569.49</ele>
        <time>2016-09-10T15:24:12Z</time>
      </trkpt>
      <trkpt lat="45.32008" lon="6.13317">
        <ele>1559.4</ele>
        <time>2016-09-10T15:26:09Z</time>
      </trkpt>
      <trkpt lat="45.32005" lon="6.13276">
        <ele>1535.36</ele>
        <time>2016-09-10T15:28:39Z</time>
      </trkpt>
      <trkpt lat="45.3198" lon="6.13259">
        <ele>1527.67</ele>
        <time>2016-09-10T15:29:42Z</time>
      </trkpt>
      <trkpt lat="45.31956" lon="6.13246">
        <ele>1519.98</ele>
        <time>2016-09-10T15:30:42Z</time>
      </trkpt>
      <trkpt lat="45.31942" lon="6.13218">
        <ele>1512.29</ele>
        <time>2016-09-10T15:31:42Z</time>
      </trkpt>
      <trkpt lat="45.31957" lon="6.1317">
        <ele>1495.95</ele>
        <time>2016-09-10T15:34:09Z</time>
      </trkpt>
      <trkpt lat="45.31958" lon="6.13112">
        <ele>1477.2</ele>
        <time>2016-09-10T15:36:51Z</time>
      </trkpt>
      <trkpt lat="45.31961" lon="6.1308">
        <ele>1471.44</ele>
        <time>2016-09-10T15:37:51Z</time>
      </trkpt>
      <trkpt lat="45.31973" lon="6.13051">
        <ele>1470.95</ele>
        <time>2016-09-10T15:38:37Z</time>
      </trkpt>
      <trkpt lat="45.31985" lon="6.13024">
        <ele>1468.07</ele>
        <time>2016-09-10T15:39:13Z</time>
      </trkpt>
      <trkpt lat="45.3199" lon="6.12989">
        <ele>1454.13</ele>
        <time>2016-09-10T15:40:24Z</time>
      </trkpt>
      <trkpt lat="45.31997" lon="6.12955">
        <ele>1450.77</ele>
        <time>2016-09-10T15:41:13Z</time>
      </trkpt>
      <trkpt lat="45.32011" lon="6.12925">
        <ele>1445</ele>
        <time>2016-09-10T15:41:57Z</time>
      </trkpt>
      <trkpt lat="45.32057" lon="6.12895">
        <ele>1427.7</ele>
        <time>2016-09-10T15:43:27Z</time>
      </trkpt>
      <trkpt lat="45.32082" lon="6.1288">
        <ele>1425.29</ele>
        <time>2016-09-10T15:44:21Z</time>
      </trkpt>
      <trkpt lat="45.32131" lon="6.12867">
        <ele>1406.07</ele>
        <time>2016-09-10T15:45:52Z</time>
      </trkpt>
      <trkpt lat="45.32155" lon="6.12839">
        <ele>1388.76</ele>
        <time>2016-09-10T15:47:44Z</time>
      </trkpt>
      <trkpt lat="45.32164" lon="6.12809">
        <ele>1382.99</ele>
        <time>2016-09-10T15:48:42Z</time>
      </trkpt>
      <trkpt lat="45.32183" lon="6.12785">
        <ele>1374.34</ele>
        <time>2016-09-10T15:49:28Z</time>
      </trkpt>
      <trkpt lat="45.32208" lon="6.12775">
        <ele>1367.13</ele>
        <time>2016-09-10T15:50:13Z</time>
      </trkpt>
      <trkpt lat="45.32233" lon="6.12759">
        <ele>1363.77</ele>
        <time>2016-09-10T15:50:55Z</time>
      </trkpt>
      <trkpt lat="45.32253" lon="6.12743">
        <ele>1357.04</ele>
        <time>2016-09-10T15:51:36Z</time>
      </trkpt>
      <trkpt lat="45.32269" lon="6.12715">
        <ele>1350.31</ele>
        <time>2016-09-10T15:52:41Z</time>
      </trkpt>
      <trkpt lat="45.32284" lon="6.1269">
        <ele>1348.39</ele>
        <time>2016-09-10T15:53:22Z</time>
      </trkpt>
      <trkpt lat="45.32303" lon="6.12669">
        <ele>1338.29</ele>
        <time>2016-09-10T15:54:13Z</time>
      </trkpt>
      <trkpt lat="45.32324" lon="6.12652">
        <ele>1331.56</ele>
        <time>2016-09-10T15:55:05Z</time>
      </trkpt>
      <trkpt lat="45.32351" lon="6.12645">
        <ele>1318.59</ele>
        <time>2016-09-10T15:55:54Z</time>
      </trkpt>
      <trkpt lat="45.32396" lon="6.1263">
        <ele>1308.97</ele>
        <time>2016-09-10T15:57:21Z</time>
      </trkpt>
      <trkpt lat="45.32417" lon="6.12642">
        <ele>1302.72</ele>
        <time>2016-09-10T15:57:57Z</time>
      </trkpt>
      <trkpt lat="45.32443" lon="6.12652">
        <ele>1302.72</ele>
        <time>2016-09-10T15:58:44Z</time>
      </trkpt>
      <trkpt lat="45.32466" lon="6.12652">
        <ele>1301.28</ele>
        <time>2016-09-10T15:59:34Z</time>
      </trkpt>
      <trkpt lat="45.32489" lon="6.1264">
        <ele>1298.4</ele>
        <time>2016-09-10T16:00:23Z</time>
      </trkpt>
      <trkpt lat="45.32506" lon="6.12618">
        <ele>1283.02</ele>
        <time>2016-09-10T16:01:16Z</time>
      </trkpt>
      <trkpt lat="45.32529" lon="6.12595">
        <ele>1285.42</ele>
        <time>2016-09-10T16:02:08Z</time>
      </trkpt>
      <trkpt lat="45.32553" lon="6.12581">
        <ele>1284.46</ele>
        <time>2016-09-10T16:02:47Z</time>
      </trkpt>
      <trkpt lat="45.32591" lon="6.12554">
        <ele>1263.31</ele>
        <time>2016-09-10T16:04:12Z</time>
      </trkpt>
      <trkpt lat="45.32628" lon="6.12533">
        <ele>1258.02</ele>
        <time>2016-09-10T16:05:29Z</time>
      </trkpt>
      <trkpt lat="45.3267" lon="6.12492">
        <ele>1235.43</ele>
        <time>2016-09-10T16:06:58Z</time>
      </trkpt>
      <trkpt lat="45.32691" lon="6.12473">
        <ele>1232.55</ele>
        <time>2016-09-10T16:07:36Z</time>
      </trkpt>
      <trkpt lat="45.32716" lon="6.12455">
        <ele>1223.9</ele>
        <time>2016-09-10T16:08:18Z</time>
      </trkpt>
      <trkpt lat="45.32738" lon="6.12426">
        <ele>1213.8</ele>
        <time>2016-09-10T16:09:03Z</time>
      </trkpt>
      <trkpt lat="45.32759" lon="6.12411">
        <ele>1209.48</ele>
        <time>2016-09-10T16:09:33Z</time>
      </trkpt>
      <trkpt lat="45.32789" lon="6.12401">
        <ele>1203.71</ele>
        <time>2016-09-10T16:10:16Z</time>
      </trkpt>
      <trkpt lat="45.32819" lon="6.12384">
        <ele>1196.02</ele>
        <time>2016-09-10T16:10:58Z</time>
      </trkpt>
      <trkpt lat="45.32841" lon="6.12381">
        <ele>1185.44</ele>
        <time>2016-09-10T16:11:28Z</time>
      </trkpt>
      <trkpt lat="45.32867" lon="6.12364">
        <ele>1178.71</ele>
        <time>2016-09-10T16:12:12Z</time>
      </trkpt>
      <trkpt lat="45.32886" lon="6.12339">
        <ele>1173.43</ele>
        <time>2016-09-10T16:12:44Z</time>
      </trkpt>
      <trkpt lat="45.32906" lon="6.12317">
        <ele>1168.62</ele>
        <time>2016-09-10T16:13:13Z</time>
      </trkpt>
      <trkpt lat="45.3292" lon="6.12289">
        <ele>1164.29</ele>
        <time>2016-09-10T16:13:45Z</time>
      </trkpt>
      <trkpt lat="45.32941" lon="6.12266">
        <ele>1158.05</ele>
        <time>2016-09-10T16:14:17Z</time>
      </trkpt>
      <trkpt lat="45.32961" lon="6.12244">
        <ele>1152.28</ele>
        <time>2016-09-10T16:14:51Z</time>
      </trkpt>
      <trkpt lat="45.32988" lon="6.12215">
        <ele>1148.43</ele>
        <time>2016-09-10T16:15:35Z</time>
      </trkpt>
      <trkpt lat="45.33009" lon="6.12193">
        <ele>1142.66</ele>
        <time>2016-09-10T16:16:07Z</time>
      </trkpt>
      <trkpt lat="45.33033" lon="6.12172">
        <ele>1135.45</ele>
        <time>2016-09-10T16:16:38Z</time>
      </trkpt>
      <trkpt lat="45.33056" lon="6.1216">
        <ele>1134.01</ele>
        <time>2016-09-10T16:17:04Z</time>
      </trkpt>
      <trkpt lat="45.33085" lon="6.12153">
        <ele>1127.28</ele>
        <time>2016-09-10T16:17:38Z</time>
      </trkpt>
      <trkpt lat="45.33114" lon="6.12155">
        <ele>1128.24</ele>
        <time>2016-09-10T16:18:19Z</time>
      </trkpt>
      <trkpt lat="45.33137" lon="6.12143">
        <ele>1142.18</ele>
        <time>2016-09-10T16:18:47Z</time>
      </trkpt>
      <trkpt lat="45.33163" lon="6.12137">
        <ele>1142.66</ele>
        <time>2016-09-10T16:19:17Z</time>
      </trkpt>
      <trkpt lat="45.33188" lon="6.12131">
        <ele>1136.9</ele>
        <time>2016-09-10T16:19:46Z</time>
      </trkpt>
      <trkpt lat="45.33223" lon="6.1213">
        <ele>1127.28</ele>
        <time>2016-09-10T16:20:18Z</time>
      </trkpt>
      <trkpt lat="45.33247" lon="6.12117">
        <ele>1121.03</ele>
        <time>2016-09-10T16:20:49Z</time>
      </trkpt>
      <trkpt lat="45.33273" lon="6.12092">
        <ele>1118.15</ele>
        <time>2016-09-10T16:21:22Z</time>
      </trkpt>
      <trkpt lat="45.33301" lon="6.12066">
        <ele>1112.38</ele>
        <time>2016-09-10T16:21:58Z</time>
      </trkpt>
      <trkpt lat="45.33327" lon="6.12048">
        <ele>1107.58</ele>
        <time>2016-09-10T16:22:25Z</time>
      </trkpt>
      <trkpt lat="45.33353" lon="6.12027">
        <ele>1103.73</ele>
        <time>2016-09-10T16:22:55Z</time>
      </trkpt>
      <trkpt lat="45.33382" lon="6.12011">
        <ele>1102.77</ele>
        <time>2016-09-10T16:23:27Z</time>
      </trkpt>
      <trkpt lat="45.33416" lon="6.11993">
        <ele>1104.69</ele>
        <time>2016-09-10T16:24:07Z</time>
      </trkpt>
      <trkpt lat="45.33441" lon="6.11983">
        <ele>1106.13</ele>
        <time>2016-09-10T16:24:36Z</time>
      </trkpt>
      <trkpt lat="45.33471" lon="6.11998">
        <ele>1105.17</ele>
        <time>2016-09-10T16:25:13Z</time>
      </trkpt>
      <trkpt lat="45.33487" lon="6.12023">
        <ele>1103.25</ele>
        <time>2016-09-10T16:25:39Z</time>
      </trkpt>
      <trkpt lat="45.33519" lon="6.11975">
        <ele>1104.21</ele>
        <time>2016-09-10T16:26:37Z</time>
      </trkpt>
      <trkpt lat="45.33542" lon="6.11956">
        <ele>1102.29</ele>
        <time>2016-09-10T16:27:08Z</time>
      </trkpt>
      <trkpt lat="45.3354" lon="6.11957">
        <ele>1097.48</ele>
        <time>2016-09-10T16:27:53Z</time>
      </trkpt>
    </trkseg>
  </trk>
</gpx>